sensor_id;sensor_type;location;lat;lon;timestamp;P1;durP1;ratioP1;P2;durP2;ratioP2
84510;SDS011;74730;43.858;18.424;2024-03-02T00:00:01;16.02;;;7.00;;
84510;SDS011;74730;43.858;18.424;2024-03-02T00:02:43;22.17;;;7.75;;
84510;SDS011;74730;43.858;18.424;2024-03-02T00:05:11;17.40;;;7.30;;
84510;SDS011;74730;43.858;18.424;2024-03-02T00:07:44;17.30;;;6.68;;
84510;SDS011;74730;43.858;18.424;2024-03-02T00:10:21;28.05;;;8.48;;
84510;SDS011;74730;43.858;18.424;2024-03-02T00:12:53;18.10;;;8.48;;
84510;SDS011;74730;43.858;18.424;2024-03-02T00:18:01;18.95;;;7.68;;
84510;SDS011;74730;43.858;18.424;2024-03-02T00:20:27;15.80;;;6.15;;
84510;SDS011;74730;43.858;18.424;2024-03-02T00:22:55;18.15;;;7.03;;
84510;SDS011;74730;43.858;18.424;2024-03-02T00:25:33;20.92;;;7.57;;
84510;SDS011;74730;43.858;18.424;2024-03-02T00:28:13;17.95;;;6.15;;
84510;SDS011;74730;43.858;18.424;2024-03-02T00:33:31;17.42;;;7.13;;
84510;SDS011;74730;43.858;18.424;2024-03-02T00:36:01;14.25;;;6.80;;
84510;SDS011;74730;43.858;18.424;2024-03-02T00:38:28;16.33;;;6.78;;
84510;SDS011;74730;43.858;18.424;2024-03-02T00:40:58;15.65;;;7.93;;
84510;SDS011;74730;43.858;18.424;2024-03-02T00:46:06;15.70;;;7.32;;
84510;SDS011;74730;43.858;18.424;2024-03-02T00:48:32;20.75;;;7.18;;
84510;SDS011;74730;43.858;18.424;2024-03-02T00:51:01;14.40;;;6.68;;
84510;SDS011;74730;43.858;18.424;2024-03-02T00:53:28;20.50;;;7.70;;
84510;SDS011;74730;43.858;18.424;2024-03-02T00:55:55;13.35;;;7.63;;
84510;SDS011;74730;43.858;18.424;2024-03-02T00:58:20;15.00;;;7.32;;
84510;SDS011;74730;43.858;18.424;2024-03-02T01:00:46;17.05;;;7.75;;
84510;SDS011;74730;43.858;18.424;2024-03-02T01:03:12;16.00;;;8.23;;
84510;SDS011;74730;43.858;18.424;2024-03-02T01:05:41;16.17;;;7.90;;
84510;SDS011;74730;43.858;18.424;2024-03-02T01:08:10;19.58;;;8.00;;
84510;SDS011;74730;43.858;18.424;2024-03-02T01:10:36;17.55;;;7.93;;
84510;SDS011;74730;43.858;18.424;2024-03-02T01:13:01;22.42;;;8.57;;
84510;SDS011;74730;43.858;18.424;2024-03-02T01:15:27;16.33;;;7.38;;
84510;SDS011;74730;43.858;18.424;2024-03-02T01:17:53;14.35;;;7.10;;
84510;SDS011;74730;43.858;18.424;2024-03-02T01:20:18;15.00;;;8.30;;
84510;SDS011;74730;43.858;18.424;2024-03-02T01:22:44;32.50;;;8.98;;
84510;SDS011;74730;43.858;18.424;2024-03-02T01:25:09;18.52;;;7.57;;
84510;SDS011;74730;43.858;18.424;2024-03-02T01:27:35;16.85;;;6.93;;
84510;SDS011;74730;43.858;18.424;2024-03-02T01:30:01;21.88;;;8.00;;
84510;SDS011;74730;43.858;18.424;2024-03-02T01:32:26;16.38;;;7.65;;
84510;SDS011;74730;43.858;18.424;2024-03-02T01:34:52;23.40;;;8.27;;
84510;SDS011;74730;43.858;18.424;2024-03-02T01:37:17;13.25;;;7.13;;
84510;SDS011;74730;43.858;18.424;2024-03-02T01:39:43;12.52;;;7.30;;
84510;SDS011;74730;43.858;18.424;2024-03-02T01:42:08;13.93;;;6.47;;
84510;SDS011;74730;43.858;18.424;2024-03-02T01:44:35;17.02;;;6.93;;
84510;SDS011;74730;43.858;18.424;2024-03-02T01:47:01;16.38;;;7.30;;
84510;SDS011;74730;43.858;18.424;2024-03-02T01:49:27;14.85;;;7.70;;
84510;SDS011;74730;43.858;18.424;2024-03-02T01:51:53;14.70;;;6.55;;
84510;SDS011;74730;43.858;18.424;2024-03-02T01:54:18;18.98;;;6.43;;
84510;SDS011;74730;43.858;18.424;2024-03-02T01:56:44;15.88;;;7.40;;
84510;SDS011;74730;43.858;18.424;2024-03-02T01:59:14;13.93;;;6.13;;
84510;SDS011;74730;43.858;18.424;2024-03-02T02:01:40;11.48;;;5.93;;
84510;SDS011;74730;43.858;18.424;2024-03-02T02:04:06;14.82;;;7.05;;
84510;SDS011;74730;43.858;18.424;2024-03-02T02:06:32;14.38;;;6.63;;
84510;SDS011;74730;43.858;18.424;2024-03-02T02:08:58;11.93;;;6.13;;
84510;SDS011;74730;43.858;18.424;2024-03-02T02:11:24;11.65;;;6.30;;
84510;SDS011;74730;43.858;18.424;2024-03-02T02:13:50;12.80;;;6.22;;
84510;SDS011;74730;43.858;18.424;2024-03-02T02:16:15;9.40;;;6.05;;
84510;SDS011;74730;43.858;18.424;2024-03-02T02:18:41;13.73;;;6.25;;
84510;SDS011;74730;43.858;18.424;2024-03-02T02:21:07;14.30;;;6.72;;
84510;SDS011;74730;43.858;18.424;2024-03-02T02:23:33;16.50;;;6.47;;
84510;SDS011;74730;43.858;18.424;2024-03-02T02:25:58;14.48;;;6.28;;
84510;SDS011;74730;43.858;18.424;2024-03-02T02:28:24;13.95;;;6.20;;
84510;SDS011;74730;43.858;18.424;2024-03-02T02:30:49;16.88;;;6.93;;
84510;SDS011;74730;43.858;18.424;2024-03-02T02:33:15;13.43;;;6.05;;
84510;SDS011;74730;43.858;18.424;2024-03-02T02:35:40;19.98;;;6.03;;
84510;SDS011;74730;43.858;18.424;2024-03-02T02:38:06;15.50;;;6.40;;
84510;SDS011;74730;43.858;18.424;2024-03-02T02:40:32;12.32;;;6.13;;
84510;SDS011;74730;43.858;18.424;2024-03-02T02:42:58;14.07;;;6.45;;
84510;SDS011;74730;43.858;18.424;2024-03-02T02:45:24;13.77;;;5.90;;
84510;SDS011;74730;43.858;18.424;2024-03-02T02:47:50;21.60;;;6.82;;
84510;SDS011;74730;43.858;18.424;2024-03-02T02:50:15;17.60;;;7.00;;
84510;SDS011;74730;43.858;18.424;2024-03-02T02:52:42;17.63;;;7.18;;
84510;SDS011;74730;43.858;18.424;2024-03-02T02:55:09;15.85;;;7.13;;
84510;SDS011;74730;43.858;18.424;2024-03-02T02:57:36;15.18;;;7.43;;
84510;SDS011;74730;43.858;18.424;2024-03-02T03:00:07;21.20;;;7.32;;
84510;SDS011;74730;43.858;18.424;2024-03-02T03:02:41;15.00;;;6.85;;
84510;SDS011;74730;43.858;18.424;2024-03-02T03:05:08;17.35;;;7.50;;
84510;SDS011;74730;43.858;18.424;2024-03-02T03:07:34;12.65;;;6.43;;
84510;SDS011;74730;43.858;18.424;2024-03-02T03:10:02;14.00;;;7.00;;
84510;SDS011;74730;43.858;18.424;2024-03-02T03:12:29;20.75;;;7.78;;
84510;SDS011;74730;43.858;18.424;2024-03-02T03:14:56;16.73;;;7.03;;
84510;SDS011;74730;43.858;18.424;2024-03-02T03:17:22;14.20;;;6.85;;
84510;SDS011;74730;43.858;18.424;2024-03-02T03:19:48;18.05;;;7.18;;
84510;SDS011;74730;43.858;18.424;2024-03-02T03:22:14;15.18;;;7.13;;
84510;SDS011;74730;43.858;18.424;2024-03-02T03:24:40;17.48;;;6.63;;
84510;SDS011;74730;43.858;18.424;2024-03-02T03:27:05;11.75;;;5.75;;
84510;SDS011;74730;43.858;18.424;2024-03-02T03:29:31;12.20;;;6.20;;
84510;SDS011;74730;43.858;18.424;2024-03-02T03:31:56;15.43;;;6.25;;
84510;SDS011;74730;43.858;18.424;2024-03-02T03:34:22;13.02;;;6.47;;
84510;SDS011;74730;43.858;18.424;2024-03-02T03:36:47;12.85;;;5.60;;
84510;SDS011;74730;43.858;18.424;2024-03-02T03:39:13;12.05;;;5.75;;
84510;SDS011;74730;43.858;18.424;2024-03-02T03:41:40;14.75;;;5.95;;
84510;SDS011;74730;43.858;18.424;2024-03-02T03:44:06;9.15;;;5.80;;
84510;SDS011;74730;43.858;18.424;2024-03-02T03:46:31;17.83;;;6.22;;
84510;SDS011;74730;43.858;18.424;2024-03-02T03:48:57;17.50;;;5.93;;
84510;SDS011;74730;43.858;18.424;2024-03-02T03:51:22;16.13;;;6.18;;
84510;SDS011;74730;43.858;18.424;2024-03-02T03:53:48;21.48;;;5.82;;
84510;SDS011;74730;43.858;18.424;2024-03-02T03:56:14;10.73;;;5.55;;
84510;SDS011;74730;43.858;18.424;2024-03-02T03:58:39;14.13;;;5.65;;
84510;SDS011;74730;43.858;18.424;2024-03-02T04:01:05;14.23;;;5.60;;
84510;SDS011;74730;43.858;18.424;2024-03-02T04:03:30;16.60;;;6.93;;
84510;SDS011;74730;43.858;18.424;2024-03-02T04:05:56;15.95;;;6.45;;
84510;SDS011;74730;43.858;18.424;2024-03-02T04:08:21;14.43;;;5.65;;
84510;SDS011;74730;43.858;18.424;2024-03-02T04:10:47;12.25;;;5.70;;
84510;SDS011;74730;43.858;18.424;2024-03-02T04:13:13;17.92;;;7.07;;
84510;SDS011;74730;43.858;18.424;2024-03-02T04:15:39;11.27;;;6.00;;
84510;SDS011;74730;43.858;18.424;2024-03-02T04:18:05;16.48;;;6.95;;
84510;SDS011;74730;43.858;18.424;2024-03-02T04:20:31;17.88;;;6.97;;
84510;SDS011;74730;43.858;18.424;2024-03-02T04:22:57;16.77;;;6.30;;
84510;SDS011;74730;43.858;18.424;2024-03-02T04:25:22;14.88;;;6.65;;
84510;SDS011;74730;43.858;18.424;2024-03-02T04:27:48;15.05;;;6.70;;
84510;SDS011;74730;43.858;18.424;2024-03-02T04:30:13;19.50;;;7.10;;
84510;SDS011;74730;43.858;18.424;2024-03-02T04:32:39;12.02;;;6.03;;
84510;SDS011;74730;43.858;18.424;2024-03-02T04:35:05;15.05;;;6.60;;
84510;SDS011;74730;43.858;18.424;2024-03-02T04:37:34;12.02;;;6.55;;
84510;SDS011;74730;43.858;18.424;2024-03-02T04:39:59;14.25;;;6.05;;
84510;SDS011;74730;43.858;18.424;2024-03-02T04:42:25;20.52;;;7.20;;
84510;SDS011;74730;43.858;18.424;2024-03-02T04:44:50;18.50;;;6.07;;
84510;SDS011;74730;43.858;18.424;2024-03-02T04:47:16;18.92;;;6.50;;
84510;SDS011;74730;43.858;18.424;2024-03-02T04:49:42;9.85;;;5.90;;
84510;SDS011;74730;43.858;18.424;2024-03-02T04:52:08;15.85;;;6.88;;
84510;SDS011;74730;43.858;18.424;2024-03-02T04:54:34;16.17;;;6.15;;
84510;SDS011;74730;43.858;18.424;2024-03-02T04:57:19;12.57;;;6.35;;
84510;SDS011;74730;43.858;18.424;2024-03-02T04:59:45;13.98;;;6.43;;
84510;SDS011;74730;43.858;18.424;2024-03-02T05:02:10;12.88;;;5.32;;
84510;SDS011;74730;43.858;18.424;2024-03-02T05:04:36;11.98;;;5.10;;
84510;SDS011;74730;43.858;18.424;2024-03-02T05:07:01;10.68;;;5.25;;
84510;SDS011;74730;43.858;18.424;2024-03-02T05:09:27;11.95;;;5.80;;
84510;SDS011;74730;43.858;18.424;2024-03-02T05:11:52;14.38;;;5.18;;
84510;SDS011;74730;43.858;18.424;2024-03-02T05:14:36;11.10;;;5.55;;
84510;SDS011;74730;43.858;18.424;2024-03-02T05:17:03;13.30;;;5.47;;
84510;SDS011;74730;43.858;18.424;2024-03-02T05:19:29;11.23;;;5.25;;
84510;SDS011;74730;43.858;18.424;2024-03-02T05:21:54;17.98;;;5.47;;
84510;SDS011;74730;43.858;18.424;2024-03-02T05:24:20;18.83;;;6.13;;
84510;SDS011;74730;43.858;18.424;2024-03-02T05:26:45;15.30;;;5.72;;
84510;SDS011;74730;43.858;18.424;2024-03-02T05:29:11;11.48;;;6.60;;
84510;SDS011;74730;43.858;18.424;2024-03-02T05:31:37;17.17;;;6.18;;
84510;SDS011;74730;43.858;18.424;2024-03-02T05:34:02;11.30;;;5.43;;
84510;SDS011;74730;43.858;18.424;2024-03-02T05:36:28;8.57;;;5.32;;
84510;SDS011;74730;43.858;18.424;2024-03-02T05:38:54;13.27;;;6.07;;
84510;SDS011;74730;43.858;18.424;2024-03-02T05:41:19;12.18;;;6.63;;
84510;SDS011;74730;43.858;18.424;2024-03-02T05:43:45;12.77;;;6.63;;
84510;SDS011;74730;43.858;18.424;2024-03-02T05:46:11;20.20;;;5.78;;
84510;SDS011;74730;43.858;18.424;2024-03-02T05:48:37;17.55;;;5.63;;
84510;SDS011;74730;43.858;18.424;2024-03-02T05:51:02;15.00;;;5.38;;
84510;SDS011;74730;43.858;18.424;2024-03-02T05:53:28;11.80;;;5.30;;
84510;SDS011;74730;43.858;18.424;2024-03-02T05:55:54;17.20;;;5.45;;
84510;SDS011;74730;43.858;18.424;2024-03-02T05:58:21;13.85;;;6.05;;
84510;SDS011;74730;43.858;18.424;2024-03-02T06:01:08;10.10;;;4.55;;
84510;SDS011;74730;43.858;18.424;2024-03-02T06:03:34;11.02;;;5.00;;
84510;SDS011;74730;43.858;18.424;2024-03-02T06:05:59;11.40;;;4.70;;
84510;SDS011;74730;43.858;18.424;2024-03-02T06:08:25;11.35;;;5.05;;
84510;SDS011;74730;43.858;18.424;2024-03-02T06:10:50;11.90;;;4.35;;
84510;SDS011;74730;43.858;18.424;2024-03-02T06:13:16;10.02;;;4.63;;
84510;SDS011;74730;43.858;18.424;2024-03-02T06:15:41;13.90;;;4.70;;
84510;SDS011;74730;43.858;18.424;2024-03-02T06:18:07;14.25;;;5.07;;
84510;SDS011;74730;43.858;18.424;2024-03-02T06:20:33;11.45;;;5.95;;
84510;SDS011;74730;43.858;18.424;2024-03-02T06:22:59;15.73;;;5.20;;
84510;SDS011;74730;43.858;18.424;2024-03-02T06:25:24;15.48;;;5.10;;
84510;SDS011;74730;43.858;18.424;2024-03-02T06:27:50;12.13;;;4.90;;
84510;SDS011;74730;43.858;18.424;2024-03-02T06:30:15;14.48;;;5.43;;
84510;SDS011;74730;43.858;18.424;2024-03-02T06:32:41;11.20;;;5.70;;
84510;SDS011;74730;43.858;18.424;2024-03-02T06:35:06;12.73;;;5.38;;
84510;SDS011;74730;43.858;18.424;2024-03-02T06:37:35;14.57;;;6.82;;
84510;SDS011;74730;43.858;18.424;2024-03-02T06:40:01;11.35;;;6.63;;
84510;SDS011;74730;43.858;18.424;2024-03-02T06:42:27;14.77;;;7.07;;
84510;SDS011;74730;43.858;18.424;2024-03-02T06:44:58;22.75;;;8.05;;
84510;SDS011;74730;43.858;18.424;2024-03-02T06:47:24;16.92;;;7.38;;
84510;SDS011;74730;43.858;18.424;2024-03-02T06:49:49;19.25;;;7.88;;
84510;SDS011;74730;43.858;18.424;2024-03-02T06:52:16;15.13;;;7.18;;
84510;SDS011;74730;43.858;18.424;2024-03-02T06:54:41;13.30;;;5.47;;
84510;SDS011;74730;43.858;18.424;2024-03-02T06:57:07;18.63;;;6.03;;
84510;SDS011;74730;43.858;18.424;2024-03-02T06:59:32;9.20;;;4.72;;
84510;SDS011;74730;43.858;18.424;2024-03-02T07:01:58;11.05;;;4.85;;
84510;SDS011;74730;43.858;18.424;2024-03-02T07:04:24;10.25;;;4.68;;
84510;SDS011;74730;43.858;18.424;2024-03-02T07:06:50;8.88;;;4.90;;
84510;SDS011;74730;43.858;18.424;2024-03-02T07:09:16;10.88;;;5.90;;
84510;SDS011;74730;43.858;18.424;2024-03-02T07:11:42;13.05;;;6.03;;
84510;SDS011;74730;43.858;18.424;2024-03-02T07:14:08;14.45;;;6.55;;
84510;SDS011;74730;43.858;18.424;2024-03-02T07:16:33;13.50;;;6.93;;
84510;SDS011;74730;43.858;18.424;2024-03-02T07:18:59;12.85;;;6.72;;
84510;SDS011;74730;43.858;18.424;2024-03-02T07:21:27;13.25;;;7.47;;
84510;SDS011;74730;43.858;18.424;2024-03-02T07:23:53;13.15;;;6.60;;
84510;SDS011;74730;43.858;18.424;2024-03-02T07:26:18;12.30;;;7.20;;
84510;SDS011;74730;43.858;18.424;2024-03-02T07:28:47;20.90;;;8.32;;
84510;SDS011;74730;43.858;18.424;2024-03-02T07:31:14;16.60;;;6.80;;
84510;SDS011;74730;43.858;18.424;2024-03-02T07:33:40;14.90;;;7.25;;
84510;SDS011;74730;43.858;18.424;2024-03-02T07:36:06;15.65;;;8.70;;
84510;SDS011;74730;43.858;18.424;2024-03-02T07:38:32;17.35;;;8.38;;
84510;SDS011;74730;43.858;18.424;2024-03-02T07:41:00;18.13;;;8.38;;
84510;SDS011;74730;43.858;18.424;2024-03-02T07:58:00;15.32;;;5.88;;
84510;SDS011;74730;43.858;18.424;2024-03-02T08:00:26;10.68;;;4.95;;
84510;SDS011;74730;43.858;18.424;2024-03-02T08:02:52;10.32;;;5.50;;
84510;SDS011;74730;43.858;18.424;2024-03-02T08:05:19;11.15;;;5.32;;
84510;SDS011;74730;43.858;18.424;2024-03-02T08:07:45;13.15;;;5.53;;
84510;SDS011;74730;43.858;18.424;2024-03-02T08:10:11;12.80;;;5.13;;
84510;SDS011;74730;43.858;18.424;2024-03-02T08:12:37;10.30;;;5.78;;
84510;SDS011;74730;43.858;18.424;2024-03-02T08:15:03;12.70;;;4.97;;
84510;SDS011;74730;43.858;18.424;2024-03-02T08:17:29;16.25;;;5.13;;
84510;SDS011;74730;43.858;18.424;2024-03-02T08:19:55;11.80;;;5.00;;
84510;SDS011;74730;43.858;18.424;2024-03-02T08:22:21;15.00;;;5.10;;
84510;SDS011;74730;43.858;18.424;2024-03-02T08:24:48;8.43;;;4.53;;
84510;SDS011;74730;43.858;18.424;2024-03-02T08:27:13;10.15;;;6.32;;
84510;SDS011;74730;43.858;18.424;2024-03-02T08:29:40;13.20;;;5.65;;
84510;SDS011;74730;43.858;18.424;2024-03-02T08:32:06;9.93;;;5.05;;
84510;SDS011;74730;43.858;18.424;2024-03-02T08:34:32;12.48;;;6.00;;
84510;SDS011;74730;43.858;18.424;2024-03-02T08:36:59;10.07;;;5.22;;
84510;SDS011;74730;43.858;18.424;2024-03-02T08:39:24;13.68;;;6.47;;
84510;SDS011;74730;43.858;18.424;2024-03-02T08:41:50;16.70;;;6.22;;
84510;SDS011;74730;43.858;18.424;2024-03-02T08:44:16;14.88;;;7.15;;
84510;SDS011;74730;43.858;18.424;2024-03-02T08:46:42;17.73;;;8.52;;
84510;SDS011;74730;43.858;18.424;2024-03-02T08:49:08;14.88;;;8.15;;
84510;SDS011;74730;43.858;18.424;2024-03-02T08:51:34;20.63;;;7.65;;
84510;SDS011;74730;43.858;18.424;2024-03-02T08:53:59;19.40;;;8.00;;
84510;SDS011;74730;43.858;18.424;2024-03-02T08:56:25;13.35;;;7.32;;
84510;SDS011;74730;43.858;18.424;2024-03-02T08:58:51;20.70;;;8.25;;
84510;SDS011;74730;43.858;18.424;2024-03-02T09:01:17;19.60;;;6.93;;
84510;SDS011;74730;43.858;18.424;2024-03-02T09:03:44;16.08;;;7.32;;
84510;SDS011;74730;43.858;18.424;2024-03-02T09:06:13;14.93;;;6.95;;
84510;SDS011;74730;43.858;18.424;2024-03-02T09:08:39;14.10;;;6.13;;
84510;SDS011;74730;43.858;18.424;2024-03-02T09:11:07;11.05;;;6.00;;
84510;SDS011;74730;43.858;18.424;2024-03-02T09:13:33;13.02;;;5.63;;
84510;SDS011;74730;43.858;18.424;2024-03-02T09:15:59;10.57;;;5.22;;
84510;SDS011;74730;43.858;18.424;2024-03-02T09:18:25;11.95;;;5.55;;
84510;SDS011;74730;43.858;18.424;2024-03-02T09:20:50;13.32;;;5.03;;
84510;SDS011;74730;43.858;18.424;2024-03-02T09:23:16;9.65;;;5.22;;
84510;SDS011;74730;43.858;18.424;2024-03-02T09:25:41;13.73;;;5.20;;
84510;SDS011;74730;43.858;18.424;2024-03-02T09:28:07;8.20;;;4.68;;
84510;SDS011;74730;43.858;18.424;2024-03-02T09:30:32;12.15;;;4.45;;
84510;SDS011;74730;43.858;18.424;2024-03-02T09:32:58;9.57;;;4.60;;
84510;SDS011;74730;43.858;18.424;2024-03-02T09:40:15;9.63;;;3.17;;
84510;SDS011;74730;43.858;18.424;2024-03-02T09:42:41;5.38;;;1.70;;
84510;SDS011;74730;43.858;18.424;2024-03-02T09:45:07;2.53;;;0.83;;
84510;SDS011;74730;43.858;18.424;2024-03-02T09:47:34;3.10;;;1.15;;
84510;SDS011;74730;43.858;18.424;2024-03-02T09:49:59;4.80;;;1.40;;
84510;SDS011;74730;43.858;18.424;2024-03-02T09:52:25;3.03;;;1.27;;
84510;SDS011;74730;43.858;18.424;2024-03-02T09:57:16;7.80;;;1.40;;
84510;SDS011;74730;43.858;18.424;2024-03-02T10:07:14;4.40;;;2.15;;
84510;SDS011;74730;43.858;18.424;2024-03-02T10:09:40;4.70;;;2.45;;
84510;SDS011;74730;43.858;18.424;2024-03-02T10:12:07;4.57;;;2.20;;
84510;SDS011;74730;43.858;18.424;2024-03-02T10:14:34;4.18;;;2.03;;
84510;SDS011;74730;43.858;18.424;2024-03-02T10:41:49;8.18;;;2.65;;
84510;SDS011;74730;43.858;18.424;2024-03-02T10:44:17;4.63;;;2.60;;
84510;SDS011;74730;43.858;18.424;2024-03-02T10:46:43;7.68;;;3.33;;
84510;SDS011;74730;43.858;18.424;2024-03-02T10:49:12;4.60;;;1.90;;
84510;SDS011;74730;43.858;18.424;2024-03-02T15:06:02;7.13;;;2.42;;
84510;SDS011;74730;43.858;18.424;2024-03-02T15:08:29;9.23;;;2.17;;
84510;SDS011;74730;43.858;18.424;2024-03-02T15:10:55;7.75;;;2.45;;
84510;SDS011;74730;43.858;18.424;2024-03-02T15:13:24;9.35;;;2.25;;
84510;SDS011;74730;43.858;18.424;2024-03-02T15:15:51;6.03;;;2.35;;
84510;SDS011;74730;43.858;18.424;2024-03-02T15:18:17;12.27;;;3.40;;
84510;SDS011;74730;43.858;18.424;2024-03-02T15:20:43;7.43;;;2.70;;
84510;SDS011;74730;43.858;18.424;2024-03-02T15:23:09;5.88;;;2.55;;
84510;SDS011;74730;43.858;18.424;2024-03-02T15:25:35;4.78;;;2.20;;
84510;SDS011;74730;43.858;18.424;2024-03-02T15:28:01;8.18;;;1.98;;
84510;SDS011;74730;43.858;18.424;2024-03-02T15:30:27;12.55;;;3.35;;
84510;SDS011;74730;43.858;18.424;2024-03-02T15:32:52;10.50;;;3.58;;
84510;SDS011;74730;43.858;18.424;2024-03-02T15:35:18;10.07;;;2.83;;
84510;SDS011;74730;43.858;18.424;2024-03-02T15:37:43;10.70;;;3.00;;
84510;SDS011;74730;43.858;18.424;2024-03-02T15:40:09;14.30;;;3.58;;
84510;SDS011;74730;43.858;18.424;2024-03-02T15:42:35;12.02;;;4.25;;
84510;SDS011;74730;43.858;18.424;2024-03-02T15:45:01;10.85;;;4.40;;
84510;SDS011;74730;43.858;18.424;2024-03-02T15:47:27;12.93;;;3.85;;
84510;SDS011;74730;43.858;18.424;2024-03-02T15:49:53;13.35;;;4.32;;
84510;SDS011;74730;43.858;18.424;2024-03-02T15:52:18;12.75;;;3.40;;
84510;SDS011;74730;43.858;18.424;2024-03-02T15:54:44;8.57;;;3.90;;
84510;SDS011;74730;43.858;18.424;2024-03-02T15:57:10;8.38;;;3.03;;
84510;SDS011;74730;43.858;18.424;2024-03-02T15:59:37;9.27;;;3.55;;
84510;SDS011;74730;43.858;18.424;2024-03-02T16:02:02;11.38;;;4.53;;
84510;SDS011;74730;43.858;18.424;2024-03-02T16:04:29;10.32;;;3.95;;
84510;SDS011;74730;43.858;18.424;2024-03-02T16:06:54;14.98;;;4.20;;
84510;SDS011;74730;43.858;18.424;2024-03-02T16:09:20;10.90;;;5.82;;
84510;SDS011;74730;43.858;18.424;2024-03-02T16:11:46;13.73;;;5.47;;
84510;SDS011;74730;43.858;18.424;2024-03-02T16:14:13;16.70;;;5.15;;
84510;SDS011;74730;43.858;18.424;2024-03-02T16:16:39;12.52;;;4.68;;
84510;SDS011;74730;43.858;18.424;2024-03-02T16:19:04;10.25;;;5.20;;
84510;SDS011;74730;43.858;18.424;2024-03-02T16:21:30;15.13;;;4.60;;
84510;SDS011;74730;43.858;18.424;2024-03-02T16:23:56;9.23;;;3.65;;
84510;SDS011;74730;43.858;18.424;2024-03-02T16:26:23;15.30;;;5.40;;
84510;SDS011;74730;43.858;18.424;2024-03-02T16:28:49;8.23;;;3.15;;
84510;SDS011;74730;43.858;18.424;2024-03-02T16:31:14;10.75;;;4.10;;
84510;SDS011;74730;43.858;18.424;2024-03-02T16:33:41;12.30;;;3.75;;
84510;SDS011;74730;43.858;18.424;2024-03-02T16:36:07;13.95;;;4.18;;
84510;SDS011;74730;43.858;18.424;2024-03-02T16:38:33;16.83;;;6.75;;
84510;SDS011;74730;43.858;18.424;2024-03-02T16:40:58;16.48;;;6.43;;
84510;SDS011;74730;43.858;18.424;2024-03-02T16:43:24;18.92;;;6.95;;
84510;SDS011;74730;43.858;18.424;2024-03-02T16:45:49;16.02;;;6.18;;
84510;SDS011;74730;43.858;18.424;2024-03-02T16:48:15;14.90;;;5.07;;
84510;SDS011;74730;43.858;18.424;2024-03-02T16:50:40;16.80;;;5.60;;
84510;SDS011;74730;43.858;18.424;2024-03-02T16:53:06;13.13;;;5.22;;
84510;SDS011;74730;43.858;18.424;2024-03-02T21:44:45;8.25;;;3.63;;
84510;SDS011;74730;43.858;18.424;2024-03-02T21:47:11;8.75;;;4.35;;
84510;SDS011;74730;43.858;18.424;2024-03-02T21:49:36;12.02;;;6.18;;
84510;SDS011;74730;43.858;18.424;2024-03-02T21:52:02;17.77;;;7.53;;
84510;SDS011;74730;43.858;18.424;2024-03-02T21:54:27;12.82;;;6.60;;
84510;SDS011;74730;43.858;18.424;2024-03-02T21:56:53;19.05;;;8.73;;
84510;SDS011;74730;43.858;18.424;2024-03-02T21:59:18;16.88;;;8.77;;
84510;SDS011;74730;43.858;18.424;2024-03-02T22:01:44;16.58;;;9.52;;
84510;SDS011;74730;43.858;18.424;2024-03-02T22:04:09;18.77;;;10.80;;
84510;SDS011;74730;43.858;18.424;2024-03-02T22:06:35;18.50;;;10.10;;
84510;SDS011;74730;43.858;18.424;2024-03-02T22:09:00;17.05;;;9.80;;
84510;SDS011;74730;43.858;18.424;2024-03-02T22:11:26;14.85;;;9.23;;
84510;SDS011;74730;43.858;18.424;2024-03-02T22:13:51;19.10;;;10.27;;
84510;SDS011;74730;43.858;18.424;2024-03-02T22:16:17;29.98;;;11.23;;
84510;SDS011;74730;43.858;18.424;2024-03-02T22:18:42;17.15;;;9.63;;
84510;SDS011;74730;43.858;18.424;2024-03-02T22:21:08;18.55;;;9.95;;
84510;SDS011;74730;43.858;18.424;2024-03-02T22:23:37;20.00;;;9.73;;
84510;SDS011;74730;43.858;18.424;2024-03-02T22:26:03;21.02;;;9.63;;
84510;SDS011;74730;43.858;18.424;2024-03-02T22:28:29;24.50;;;12.10;;
84510;SDS011;74730;43.858;18.424;2024-03-02T22:30:55;22.67;;;12.10;;
84510;SDS011;74730;43.858;18.424;2024-03-02T22:33:21;20.48;;;10.95;;
84510;SDS011;74730;43.858;18.424;2024-03-02T22:35:46;21.95;;;12.32;;
84510;SDS011;74730;43.858;18.424;2024-03-02T22:38:12;18.73;;;11.80;;
84510;SDS011;74730;43.858;18.424;2024-03-02T22:40:40;28.80;;;15.05;;
84510;SDS011;74730;43.858;18.424;2024-03-02T22:43:05;29.67;;;14.57;;
84510;SDS011;74730;43.858;18.424;2024-03-02T22:45:31;34.33;;;17.93;;
84510;SDS011;74730;43.858;18.424;2024-03-02T22:47:56;25.93;;;15.07;;
84510;SDS011;74730;43.858;18.424;2024-03-02T22:50:22;22.08;;;12.32;;
84510;SDS011;74730;43.858;18.424;2024-03-02T22:52:50;25.05;;;12.38;;
84510;SDS011;74730;43.858;18.424;2024-03-02T22:55:16;18.48;;;11.52;;
84510;SDS011;74730;43.858;18.424;2024-03-02T22:57:42;16.92;;;8.68;;
84510;SDS011;74730;43.858;18.424;2024-03-02T23:00:07;17.00;;;8.65;;
84510;SDS011;74730;43.858;18.424;2024-03-02T23:02:45;11.73;;;6.60;;
84510;SDS011;74730;43.858;18.424;2024-03-02T23:12:29;13.07;;;6.60;;
84510;SDS011;74730;43.858;18.424;2024-03-02T23:14:55;17.50;;;8.43;;
84510;SDS011;74730;43.858;18.424;2024-03-02T23:17:28;17.88;;;9.25;;
84510;SDS011;74730;43.858;18.424;2024-03-02T23:19:54;16.38;;;8.32;;
84510;SDS011;74730;43.858;18.424;2024-03-02T23:22:19;15.43;;;7.40;;
84510;SDS011;74730;43.858;18.424;2024-03-02T23:24:46;15.05;;;7.18;;
84510;SDS011;74730;43.858;18.424;2024-03-02T23:27:12;14.80;;;8.33;;
84510;SDS011;74730;43.858;18.424;2024-03-02T23:29:37;18.70;;;7.87;;
84510;SDS011;74730;43.858;18.424;2024-03-02T23:32:05;12.65;;;6.75;;
84510;SDS011;74730;43.858;18.424;2024-03-02T23:34:32;12.77;;;6.35;;
84510;SDS011;74730;43.858;18.424;2024-03-02T23:36:59;13.77;;;6.63;;
84510;SDS011;74730;43.858;18.424;2024-03-02T23:39:25;14.77;;;6.65;;
84510;SDS011;74730;43.858;18.424;2024-03-02T23:42:08;16.98;;;6.45;;
84510;SDS011;74730;43.858;18.424;2024-03-02T23:44:34;12.20;;;5.78;;
84510;SDS011;74730;43.858;18.424;2024-03-02T23:47:00;14.70;;;5.97;;
84510;SDS011;74730;43.858;18.424;2024-03-02T23:49:25;14.17;;;6.60;;
84510;SDS011;74730;43.858;18.424;2024-03-02T23:51:51;12.10;;;6.10;;
84510;SDS011;74730;43.858;18.424;2024-03-02T23:54:18;16.35;;;6.03;;
84510;SDS011;74730;43.858;18.424;2024-03-02T23:56:44;13.45;;;6.15;;
84510;SDS011;74730;43.858;18.424;2024-03-02T23:59:10;15.30;;;7.32;;
